Time;durP1;ratioP1;P1;durP2;ratioP2;P2;SDS_P1;SDS_P2;PMS_P1;PMS_P2;Temp;Humidity;BMP_temperature;BMP_pressure;BME280_temperature;BME280_humidity;BME280_pressure;Samples;Min_cycle;Max_cycle;Signal;HPM_P1;HPM_P2
2021/07/18 00:00:28;;;;;;;4.73;3.93;;;16.80;99.90;;;;;;5078018;28;20182;-67
2021/07/18 00:02:58;;;;;;;6.47;4.53;;;16.80;99.90;;;;;;5077624;28;20345;-68
2021/07/18 00:05:27;;;;;;;5.17;3.93;;;16.70;99.90;;;;;;5078212;28;20238;-68
2021/07/18 00:07:55;;;;;;;4.37;4.10;;;16.70;99.90;;;;;;5071160;28;20444;-68
2021/07/18 00:10:27;;;;;;;4.50;4.03;;;16.70;99.90;;;;;;5077436;28;20184;-68
2021/07/18 00:12:55;;;;;;;4.87;4.40;;;16.60;99.90;;;;;;5079285;28;20224;-67
2021/07/18 00:15:23;;;;;;;4.60;4.27;;;16.60;99.90;;;;;;5080600;28;20226;-68
2021/07/18 00:17:52;;;;;;;6.30;4.57;;;16.50;99.90;;;;;;5081843;28;20185;-68
2021/07/18 00:20:21;;;;;;;7.73;4.90;;;16.50;99.90;;;;;;5079739;28;20353;-68
2021/07/18 00:22:50;;;;;;;6.57;4.70;;;16.50;99.90;;;;;;5083449;28;20199;-68
2021/07/18 00:25:18;;;;;;;4.93;4.43;;;16.50;99.90;;;;;;5081105;28;20200;-68
2021/07/18 00:27:46;;;;;;;10.03;5.33;;;16.40;99.90;;;;;;5082319;28;20205;-68
2021/07/18 00:30:15;;;;;;;8.53;5.30;;;16.40;99.90;;;;;;5078199;28;20184;-68
2021/07/18 00:32:44;;;;;;;11.27;5.33;;;16.40;99.90;;;;;;5083136;28;20349;-68
2021/07/18 00:35:12;;;;;;;6.73;5.40;;;16.30;99.90;;;;;;5081612;28;20238;-68
2021/07/18 00:37:42;;;;;;;8.37;5.20;;;16.30;99.90;;;;;;5081318;28;20247;-68
2021/07/18 00:40:11;;;;;;;7.20;4.83;;;16.30;99.90;;;;;;5079567;28;20185;-68
2021/07/18 00:42:40;;;;;;;7.13;5.33;;;16.20;99.90;;;;;;5079069;28;20199;-68
2021/07/18 00:45:10;;;;;;;7.40;5.50;;;16.20;99.90;;;;;;5080898;28;20218;-68
2021/07/18 00:47:40;;;;;;;8.20;5.67;;;16.10;99.90;;;;;;5074124;28;20200;-68
2021/07/18 00:50:11;;;;;;;7.20;5.83;;;16.10;99.90;;;;;;5080639;28;20184;-68
2021/07/18 00:52:39;;;;;;;7.93;5.53;;;16.00;99.90;;;;;;5080938;28;20226;-68
2021/07/18 00:55:11;;;;;;;9.30;5.83;;;16.00;99.90;;;;;;5080070;28;20194;-68
2021/07/18 00:57:43;;;;;;;6.43;5.83;;;16.00;99.90;;;;;;5080164;28;20230;-67
2021/07/18 01:00:13;;;;;;;8.63;6.30;;;15.90;99.90;;;;;;5079856;28;20252;-68
2021/07/18 01:02:42;;;;;;;10.00;6.97;;;15.80;99.90;;;;;;5079122;28;20326;-67
2021/07/18 01:05:12;;;;;;;8.60;6.63;;;15.80;99.90;;;;;;5075816;28;20188;-68
2021/07/18 01:07:40;;;;;;;8.67;6.27;;;15.80;99.90;;;;;;5081422;28;20188;-67
2021/07/18 01:10:12;;;;;;;11.03;6.93;;;15.80;99.90;;;;;;5078393;28;20409;-68
2021/07/18 01:12:40;;;;;;;11.97;6.77;;;15.80;99.90;;;;;;5078723;28;20207;-68
2021/07/18 01:15:28;;;;;;;10.77;6.60;;;15.70;99.90;;;;;;5078934;28;20202;-68
2021/07/18 01:17:57;;;;;;;9.73;6.70;;;15.70;99.90;;;;;;5081344;28;20445;-68
2021/07/18 01:20:25;;;;;;;10.43;7.53;;;15.70;99.90;;;;;;5081043;28;20176;-68
2021/07/18 01:22:55;;;;;;;9.13;7.27;;;15.60;99.90;;;;;;5077777;28;20200;-68
2021/07/18 01:25:23;;;;;;;11.57;7.70;;;15.60;99.90;;;;;;5076165;28;20179;-68
2021/07/18 01:27:52;;;;;;;9.13;7.57;;;15.50;99.90;;;;;;5079653;28;20173;-68
2021/07/18 01:30:20;;;;;;;10.20;7.80;;;15.50;99.90;;;;;;5079504;28;20328;-67
2021/07/18 01:32:48;;;;;;;13.10;8.50;;;15.50;99.90;;;;;;5072399;28;20460;-67
2021/07/18 01:35:19;;;;;;;13.13;8.40;;;15.50;99.90;;;;;;5077535;28;20212;-68
2021/07/18 01:37:47;;;;;;;12.27;8.43;;;15.40;99.90;;;;;;5080126;28;20196;-68
2021/07/18 01:40:17;;;;;;;14.63;9.07;;;15.40;99.90;;;;;;5079592;28;20369;-68
2021/07/18 01:42:45;;;;;;;9.20;8.23;;;15.40;99.90;;;;;;5079596;28;20437;-67
2021/07/18 01:45:14;;;;;;;11.53;8.63;;;15.40;99.90;;;;;;5078001;28;20189;-68
2021/07/18 01:47:42;;;;;;;13.03;8.40;;;15.30;99.90;;;;;;5080104;28;20177;-67
2021/07/18 01:50:12;;;;;;;12.70;9.10;;;15.30;99.90;;;;;;5078674;28;20188;-68
2021/07/18 01:52:40;;;;;;;12.07;8.47;;;15.30;99.90;;;;;;5068262;28;20191;-68
2021/07/18 01:55:13;;;;;;;11.67;8.23;;;15.30;99.90;;;;;;5078564;28;20184;-67
2021/07/18 01:57:43;;;;;;;12.97;8.67;;;15.20;99.90;;;;;;5078055;28;20175;-68
2021/07/18 02:00:14;;;;;;;11.67;8.50;;;15.20;99.90;;;;;;5078608;28;20215;-67
2021/07/18 02:02:43;;;;;;;14.53;9.10;;;15.10;99.90;;;;;;5079070;28;20432;-68
2021/07/18 02:05:13;;;;;;;13.40;8.30;;;15.10;99.90;;;;;;5080347;28;20203;-67
2021/07/18 02:07:41;;;;;;;14.90;8.07;;;15.10;99.90;;;;;;5077895;28;20187;-67
2021/07/18 02:10:11;;;;;;;11.17;8.47;;;15.00;99.90;;;;;;5078527;28;20184;-67
2021/07/18 02:12:43;;;;;;;12.13;8.73;;;15.00;99.90;;;;;;5078515;28;20201;-68
2021/07/18 02:15:22;;;;;;;14.83;9.47;;;15.00;99.90;;;;;;5074400;28;20202;-68
2021/07/18 02:17:50;;;;;;;12.50;9.20;;;14.90;99.90;;;;;;5074596;28;20354;-68
2021/07/18 02:20:24;;;;;;;17.70;9.63;;;14.90;99.90;;;;;;5082031;28;20210;-67
2021/07/18 02:22:55;;;;;;;12.93;9.00;;;14.90;99.90;;;;;;5078820;28;20319;-68
2021/07/18 02:25:25;;;;;;;16.83;10.40;;;14.80;99.90;;;;;;5078504;28;20184;-68
2021/07/18 02:27:56;;;;;;;16.07;10.77;;;14.80;99.90;;;;;;5078127;28;20180;-68
2021/07/18 02:30:25;;;;;;;14.00;10.40;;;14.80;99.90;;;;;;5079666;28;20184;-68
2021/07/18 02:32:53;;;;;;;13.60;10.07;;;14.80;99.90;;;;;;5078859;28;20180;-68
2021/07/18 02:35:23;;;;;;;17.20;11.20;;;14.80;99.90;;;;;;5074181;28;20215;-67
2021/07/18 02:37:52;;;;;;;20.70;10.27;;;14.80;99.90;;;;;;5075754;28;20180;-67
2021/07/18 02:40:22;;;;;;;17.27;11.73;;;14.80;99.90;;;;;;5078845;28;20457;-68
2021/07/18 02:42:51;;;;;;;16.90;11.03;;;14.80;99.90;;;;;;5078131;28;20196;-67
2021/07/18 02:45:22;;;;;;;17.10;10.83;;;14.80;99.90;;;;;;5077645;28;20237;-68
2021/07/18 02:47:51;;;;;;;20.00;10.37;;;14.80;99.90;;;;;;5075311;28;20334;-67
2021/07/18 02:50:22;;;;;;;16.90;11.20;;;14.80;99.90;;;;;;5078315;28;20448;-68
2021/07/18 02:52:50;;;;;;;15.67;11.43;;;14.70;99.90;;;;;;5075741;28;20176;-67
2021/07/18 02:55:19;;;;;;;18.67;11.73;;;14.70;99.90;;;;;;5077772;28;20211;-68
2021/07/18 02:57:48;;;;;;;15.40;11.13;;;14.70;99.90;;;;;;5077346;28;20315;-68
2021/07/18 03:00:18;;;;;;;18.03;11.50;;;14.70;99.90;;;;;;5070930;28;20172;-68
2021/07/18 03:02:48;;;;;;;16.43;11.17;;;14.70;99.90;;;;;;5077290;28;20206;-68
2021/07/18 03:05:17;;;;;;;17.30;12.00;;;14.60;99.90;;;;;;5060918;28;20190;-68
2021/07/18 03:07:46;;;;;;;21.57;11.67;;;14.60;99.90;;;;;;5075826;28;20409;-68
2021/07/18 03:10:18;;;;;;;20.63;11.90;;;14.60;99.90;;;;;;5080406;28;20211;-68
2021/07/18 03:12:47;;;;;;;16.17;11.60;;;14.60;99.90;;;;;;5074630;28;20188;-67
2021/07/18 03:15:17;;;;;;;17.27;11.70;;;14.50;99.90;;;;;;5077383;28;20207;-75
2021/07/18 03:17:46;;;;;;;22.23;12.87;;;14.50;99.90;;;;;;5077179;28;20193;-75
2021/07/18 03:20:18;;;;;;;13.73;11.17;;;14.50;99.90;;;;;;5078024;28;20184;-75
2021/07/18 03:22:47;;;;;;;15.53;12.00;;;14.50;99.90;;;;;;5079028;28;20219;-76
2021/07/18 03:25:17;;;;;;;17.03;11.80;;;14.50;99.90;;;;;;5078850;28;20444;-76
2021/07/18 03:27:47;;;;;;;18.17;12.03;;;14.40;99.90;;;;;;5074147;28;20199;-76
2021/07/18 03:30:17;;;;;;;15.27;10.70;;;14.40;99.90;;;;;;5078227;28;20207;-75
2021/07/18 03:32:46;;;;;;;15.50;10.53;;;14.50;99.90;;;;;;5078175;28;20180;-73
2021/07/18 03:35:16;;;;;;;15.07;12.13;;;14.40;99.90;;;;;;5078429;28;20291;-75
2021/07/18 03:37:44;;;;;;;18.03;11.43;;;14.40;99.90;;;;;;5077368;28;20361;-75
2021/07/18 03:40:14;;;;;;;16.07;11.53;;;14.30;99.90;;;;;;5078118;28;20437;-75
2021/07/18 03:42:43;;;;;;;17.37;11.73;;;14.30;99.90;;;;;;5078717;28;20185;-76
2021/07/18 03:45:14;;;;;;;17.87;11.50;;;14.30;99.90;;;;;;5078706;28;20243;-74
2021/07/18 03:47:45;;;;;;;14.60;10.50;;;14.30;99.90;;;;;;5090461;28;20241;-76
2021/07/18 03:50:14;;;;;;;19.97;11.77;;;14.30;99.90;;;;;;5082211;28;20180;-75
2021/07/18 03:52:47;;;;;;;15.63;11.27;;;14.30;99.90;;;;;;5081787;28;20387;-76
2021/07/18 03:55:17;;;;;;;16.30;11.63;;;14.20;99.90;;;;;;5079383;28;20211;-76
2021/07/18 03:57:46;;;;;;;18.50;11.70;;;14.20;99.90;;;;;;5079514;28;20238;-76
2021/07/18 04:00:17;;;;;;;17.33;11.93;;;14.20;99.90;;;;;;5081383;28;20180;-75
2021/07/18 04:02:49;;;;;;;16.73;11.27;;;14.30;99.90;;;;;;5060238;28;20184;-76
2021/07/18 04:05:20;;;;;;;15.07;11.00;;;14.30;99.90;;;;;;5078245;28;20193;-76
2021/07/18 04:08:17;;;;;;;12.53;11.17;;;14.20;99.90;;;;;;5078971;28;20307;-76
2021/07/18 04:11:00;;;;;;;14.67;10.37;;;14.20;99.90;;;;;;5072238;28;20188;-75
2021/07/18 04:13:42;;;;;;;17.40;11.70;;;14.20;99.90;;;;;;5063678;28;20349;-75
2021/07/18 04:16:20;;;;;;;17.10;11.07;;;14.20;99.90;;;;;;5064323;28;20176;-76
2021/07/18 04:18:49;;;;;;;13.43;9.50;;;14.30;99.90;;;;;;5079077;28;20183;-75
2021/07/18 04:21:19;;;;;;;11.87;9.90;;;14.20;99.90;;;;;;5081355;28;20254;-75
2021/07/18 04:23:49;;;;;;;14.17;9.30;;;14.30;99.90;;;;;;5077210;28;20219;-75
2021/07/18 04:26:17;;;;;;;13.63;9.67;;;14.30;99.90;;;;;;5079198;28;20241;-76
2021/07/18 04:28:48;;;;;;;20.13;9.43;;;14.30;99.90;;;;;;5080030;28;20188;-76
2021/07/18 04:31:16;;;;;;;13.87;10.20;;;14.30;99.90;;;;;;5081611;28;20476;-75
2021/07/18 04:33:45;;;;;;;12.10;9.50;;;14.30;99.90;;;;;;5080936;28;20924;-75
2021/07/18 04:36:13;;;;;;;11.03;9.70;;;14.30;99.90;;;;;;5080355;28;20459;-76
2021/07/18 04:38:41;;;;;;;14.07;10.50;;;14.30;99.90;;;;;;5076126;28;20184;-75
2021/07/18 04:41:11;;;;;;;15.77;11.37;;;14.40;99.90;;;;;;5081787;28;20183;-76
2021/07/18 04:43:39;;;;;;;18.40;11.13;;;14.40;99.90;;;;;;5080417;28;20314;-75
2021/07/18 04:46:08;;;;;;;20.30;12.50;;;14.50;99.90;;;;;;5082012;28;20417;-75
2021/07/18 04:48:36;;;;;;;18.83;12.30;;;14.50;99.90;;;;;;5078957;28;20255;-75
2021/07/18 04:51:04;;;;;;;18.53;13.40;;;14.60;99.90;;;;;;5079191;28;20448;-75
2021/07/18 04:53:33;;;;;;;18.27;12.27;;;14.70;99.90;;;;;;5077620;28;20186;-75
2021/07/18 04:56:01;;;;;;;24.03;14.80;;;14.80;99.90;;;;;;5075882;28;20294;-76
2021/07/18 04:58:31;;;;;;;22.67;13.77;;;14.90;99.90;;;;;;5079888;28;20315;-75
2021/07/18 05:00:59;;;;;;;19.43;13.47;;;15.00;99.90;;;;;;5080733;28;20184;-75
2021/07/18 05:03:27;;;;;;;24.80;15.57;;;15.20;99.90;;;;;;5079862;28;20432;-75
2021/07/18 05:05:56;;;;;;;26.43;15.73;;;15.30;99.90;;;;;;5075327;28;20188;-75
2021/07/18 05:08:24;;;;;;;29.17;16.17;;;15.40;99.90;;;;;;5080398;28;20484;-75
2021/07/18 05:10:52;;;;;;;25.97;15.37;;;15.50;99.90;;;;;;5080125;28;20180;-75
2021/07/18 05:13:21;;;;;;;25.33;15.30;;;15.60;99.90;;;;;;5081801;28;20426;-75
2021/07/18 05:15:50;;;;;;;26.63;16.60;;;15.80;99.90;;;;;;5078348;28;20271;-73
2021/07/18 05:18:19;;;;;;;25.77;16.17;;;15.90;99.90;;;;;;5080987;28;20192;-75
2021/07/18 05:20:47;;;;;;;24.37;15.37;;;15.90;99.90;;;;;;5077112;28;20184;-74
2021/07/18 05:23:15;;;;;;;26.80;15.80;;;16.00;99.90;;;;;;5081246;28;20186;-75
2021/07/18 05:25:43;;;;;;;26.73;15.33;;;16.10;99.90;;;;;;5081511;28;20177;-74
2021/07/18 05:28:12;;;;;;;26.43;14.80;;;16.20;99.90;;;;;;5079310;28;20177;-75
2021/07/18 05:30:43;;;;;;;20.07;14.43;;;16.30;99.90;;;;;;5081135;28;20212;-73
2021/07/18 05:33:12;;;;;;;21.77;14.17;;;16.40;99.90;;;;;;5075199;28;20446;-75
2021/07/18 05:35:41;;;;;;;23.67;14.17;;;16.50;99.90;;;;;;5078001;28;20227;-74
2021/07/18 05:38:09;;;;;;;22.27;13.73;;;16.60;99.90;;;;;;5078274;28;20196;-75
2021/07/18 05:40:38;;;;;;;20.80;13.93;;;16.80;99.90;;;;;;5080982;28;20181;-75
2021/07/18 05:43:06;;;;;;;23.77;13.13;;;16.90;99.90;;;;;;5076792;28;20384;-72
2021/07/18 05:45:35;;;;;;;16.20;12.23;;;17.10;99.90;;;;;;5074933;28;20183;-75
2021/07/18 05:48:07;;;;;;;18.60;12.43;;;17.20;99.90;;;;;;5080017;28;20189;-75
2021/07/18 05:50:37;;;;;;;18.87;12.53;;;17.40;99.90;;;;;;5079718;28;20188;-74
2021/07/18 05:53:05;;;;;;;15.50;10.90;;;17.60;99.90;;;;;;5080495;28;20187;-74
2021/07/18 05:55:33;;;;;;;14.03;10.67;;;17.70;99.90;;;;;;5074801;28;20208;-75
2021/07/18 05:58:01;;;;;;;15.27;10.63;;;17.80;99.90;;;;;;5076095;28;20200;-75
2021/07/18 06:00:30;;;;;;;15.50;10.63;;;17.90;99.90;;;;;;5077029;28;20176;-75
2021/07/18 06:02:58;;;;;;;14.70;10.90;;;18.10;99.90;;;;;;5078154;28;20757;-75
2021/07/18 06:05:26;;;;;;;12.90;10.03;;;18.30;99.90;;;;;;5080390;28;20302;-75
2021/07/18 06:07:56;;;;;;;10.87;9.50;;;18.60;99.90;;;;;;5079902;28;20184;-75
2021/07/18 06:10:26;;;;;;;11.30;8.93;;;18.80;99.90;;;;;;5079296;28;20313;-76
2021/07/18 06:12:55;;;;;;;11.90;9.10;;;18.90;99.90;;;;;;5078561;28;20192;-74
2021/07/18 06:15:23;;;;;;;9.87;8.00;;;19.30;99.90;;;;;;5076319;28;20404;-75
2021/07/18 06:17:51;;;;;;;9.17;7.50;;;19.50;99.90;;;;;;5079364;28;20192;-75
2021/07/18 06:20:20;;;;;;;9.17;7.63;;;19.60;99.90;;;;;;5077390;28;20192;-75
2021/07/18 06:22:51;;;;;;;10.80;8.20;;;19.80;99.90;;;;;;5077445;28;20393;-75
2021/07/18 06:25:20;;;;;;;8.27;7.47;;;20.00;99.90;;;;;;5093868;28;20204;-75
2021/07/18 06:27:49;;;;;;;10.10;7.77;;;20.30;99.90;;;;;;5078937;28;20182;-75
2021/07/18 06:30:17;;;;;;;9.07;6.97;;;20.40;99.90;;;;;;5079431;28;20487;-75
2021/07/18 06:32:46;;;;;;;11.07;7.40;;;20.60;99.90;;;;;;5078812;28;20182;-75
2021/07/18 06:35:14;;;;;;;7.80;6.07;;;21.00;99.90;;;;;;5078737;28;20221;-75
2021/07/18 06:37:42;;;;;;;8.63;6.57;;;21.30;99.90;;;;;;5075881;28;20426;-75
2021/07/18 06:40:12;;;;;;;7.63;6.03;;;21.50;99.90;;;;;;5078774;28;20191;-75
2021/07/18 06:42:41;;;;;;;10.80;6.93;;;21.70;99.90;;;;;;5075643;28;20192;-75
2021/07/18 06:45:11;;;;;;;8.40;6.10;;;22.10;99.90;;;;;;5079349;28;20238;-74
2021/07/18 06:47:40;;;;;;;6.67;5.83;;;22.50;99.90;;;;;;5073704;28;20425;-75
2021/07/18 06:50:10;;;;;;;9.23;6.23;;;22.80;99.90;;;;;;5076351;28;20442;-75
2021/07/18 06:52:38;;;;;;;6.43;5.77;;;22.90;99.90;;;;;;5079710;28;20180;-75
2021/07/18 06:55:08;;;;;;;6.90;6.13;;;23.10;99.90;;;;;;5078795;28;20201;-75
2021/07/18 06:57:36;;;;;;;6.50;5.40;;;23.30;99.90;;;;;;5078561;28;20355;-75
2021/07/18 07:00:07;;;;;;;6.70;6.13;;;23.40;99.90;;;;;;5077246;28;20195;-75
2021/07/18 07:02:36;;;;;;;7.53;5.50;;;23.70;99.90;;;;;;5079159;28;20187;-74
2021/07/18 07:05:06;;;;;;;6.13;5.53;;;23.80;99.90;;;;;;5078177;28;20190;-75
2021/07/18 07:07:34;;;;;;;6.20;5.47;;;24.10;99.90;;;;;;5079011;28;20193;-74
2021/07/18 07:10:03;;;;;;;6.40;5.85;;;24.50;99.90;;;;;;5075896;28;20777;-75
2021/07/18 07:12:32;;;;;;;4.97;4.63;;;24.70;99.90;;;;;;5079272;28;20284;-75
2021/07/18 07:15:02;;;;;;;4.13;3.72;;;24.80;99.90;;;;;;5074237;28;20427;-75
2021/07/18 07:17:33;;;;;;;8.40;4.35;;;25.30;99.90;;;;;;5077537;28;20207;-75
2021/07/18 07:20:01;;;;;;;4.40;4.10;;;25.70;99.90;;;;;;5078894;28;20329;-74
2021/07/18 07:22:30;;;;;;;4.18;3.78;;;26.40;99.90;;;;;;5080102;28;20249;-72
2021/07/18 07:24:58;;;;;;;4.07;3.78;;;26.40;99.90;;;;;;5082731;28;20176;-73
2021/07/18 07:27:26;;;;;;;5.13;3.90;;;26.70;99.90;;;;;;5079940;28;20232;-72
2021/07/18 07:29:55;;;;;;;5.18;3.83;;;26.90;99.90;;;;;;5083741;28;20406;-72
2021/07/18 07:32:23;;;;;;;3.53;3.22;;;27.10;99.90;;;;;;5082853;28;20264;-72
2021/07/18 07:34:53;;;;;;;4.38;2.92;;;27.20;99.90;;;;;;5082066;28;20264;-72
2021/07/18 07:37:24;;;;;;;3.28;3.08;;;27.60;99.90;;;;;;5079447;28;20222;-72
2021/07/18 07:39:53;;;;;;;3.45;3.15;;;28.10;99.90;;;;;;5083121;28;20211;-73
2021/07/18 07:42:22;;;;;;;2.72;2.50;;;28.60;99.90;;;;;;5079606;28;20185;-72
2021/07/18 07:44:52;;;;;;;3.30;2.85;;;29.10;99.90;;;;;;5083266;28;20219;-67
2021/07/18 07:47:25;;;;;;;6.55;2.75;;;29.60;99.90;;;;;;5081729;28;20459;-67
2021/07/18 07:49:55;;;;;;;2.92;2.72;;;29.70;99.90;;;;;;5082264;28;20180;-67
2021/07/18 07:52:23;;;;;;;4.07;3.20;;;29.90;99.90;;;;;;5082323;28;20192;-66
2021/07/18 07:54:52;;;;;;;5.00;3.00;;;30.70;99.90;;;;;;5078892;28;20183;-67
2021/07/18 07:57:20;;;;;;;3.25;2.95;;;30.60;99.90;;;;;;5078702;28;20218;-67
2021/07/18 07:59:49;;;;;;;2.70;2.50;;;31.30;99.90;;;;;;5083125;28;20183;-67
2021/07/18 08:02:17;;;;;;;2.88;2.65;;;31.30;99.90;;;;;;5077380;28;20354;-67
2021/07/18 08:04:48;;;;;;;3.35;2.50;;;31.60;99.90;;;;;;5069890;28;20192;-67
2021/07/18 08:07:20;;;;;;;3.88;2.78;;;31.80;99.90;;;;;;5080012;28;20226;-67
2021/07/18 08:09:48;;;;;;;3.10;2.42;;;31.80;99.90;;;;;;5082052;28;20365;-67
2021/07/18 08:12:17;;;;;;;2.47;2.20;;;32.00;99.90;;;;;;5080772;28;20211;-67
2021/07/18 08:14:45;;;;;;;3.10;2.17;;;32.10;99.90;;;;;;5083576;28;20215;-67
2021/07/18 08:17:14;;;;;;;4.82;2.17;;;32.20;99.90;;;;;;5081635;28;20273;-68
2021/07/18 08:19:46;;;;;;;3.08;2.70;;;32.40;99.90;;;;;;5080022;28;20251;-67
2021/07/18 08:22:15;;;;;;;2.42;2.20;;;32.40;99.90;;;;;;5080932;28;20193;-67
2021/07/18 08:24:45;;;;;;;1.83;1.73;;;32.60;99.90;;;;;;5081498;28;20413;-67
2021/07/18 08:27:13;;;;;;;1.95;1.80;;;32.80;99.90;;;;;;5081471;28;20176;-67
2021/07/18 08:29:41;;;;;;;2.70;1.55;;;33.10;99.90;;;;;;5073730;28;20508;-67
2021/07/18 08:32:09;;;;;;;2.53;1.88;;;32.70;99.90;;;;;;5081370;28;20180;-67
2021/07/18 08:34:38;;;;;;;4.53;2.00;;;33.20;99.90;;;;;;5077471;28;20247;-67
2021/07/18 08:37:06;;;;;;;3.97;1.92;;;33.20;99.90;;;;;;5081949;28;20208;-67
2021/07/18 08:39:34;;;;;;;2.15;1.83;;;33.00;99.90;;;;;;5079658;28;20184;-67
2021/07/18 08:42:04;;;;;;;2.13;1.98;;;32.90;99.90;;;;;;5082281;28;20341;-67
2021/07/18 08:44:33;;;;;;;2.33;2.22;;;33.30;99.90;;;;;;5082841;28;20196;-67
2021/07/18 08:47:02;;;;;;;2.20;1.58;;;33.70;99.90;;;;;;5080203;28;20195;-67
2021/07/18 08:49:30;;;;;;;1.92;1.83;;;33.90;99.90;;;;;;5079653;28;20172;-67
2021/07/18 08:51:59;;;;;;;2.58;2.40;;;33.70;99.90;;;;;;5079031;28;20180;-67
2021/07/18 08:54:29;;;;;;;2.10;1.95;;;33.40;99.90;;;;;;5082318;28;20192;-67
2021/07/18 08:57:00;;;;;;;2.28;2.15;;;33.30;99.90;;;;;;5077889;28;20382;-67
2021/07/18 08:59:30;;;;;;;2.00;1.90;;;33.50;99.90;;;;;;5080552;28;20206;-67
2021/07/18 09:02:00;;;;;;;1.90;1.80;;;33.60;99.90;;;;;;5078127;28;20400;-67
2021/07/18 09:04:30;;;;;;;2.00;1.80;;;34.00;99.90;;;;;;5081397;28;20207;-67
2021/07/18 09:07:04;;;;;;;1.88;1.75;;;34.20;99.90;;;;;;5082018;28;20184;-67
2021/07/18 09:09:34;;;;;;;2.30;1.80;;;33.90;99.90;;;;;;5074854;28;20180;-68
2021/07/18 09:12:04;;;;;;;1.80;1.70;;;34.40;99.90;;;;;;5081032;28;20459;-67
2021/07/18 09:14:38;;;;;;;2.00;1.88;;;34.00;99.90;;;;;;5079288;28;20541;-67
2021/07/18 09:17:10;;;;;;;3.20;2.20;;;34.00;99.90;;;;;;5080358;28;20208;-67
2021/07/18 09:19:40;;;;;;;1.98;1.70;;;34.10;99.90;;;;;;5074952;28;20176;-67
2021/07/18 09:22:17;;;;;;;3.67;2.10;;;34.40;99.90;;;;;;5081355;28;20336;-67
2021/07/18 09:24:48;;;;;;;1.92;1.80;;;35.00;99.90;;;;;;5079933;28;20183;-67
2021/07/18 09:27:20;;;;;;;1.80;1.73;;;34.80;99.90;;;;;;5079163;28;20399;-67
2021/07/18 09:29:52;;;;;;;2.30;2.10;;;34.70;99.90;;;;;;5079713;28;20184;-67
2021/07/18 09:32:22;;;;;;;2.28;2.17;;;34.60;99.90;;;;;;5081056;28;20222;-67
2021/07/18 09:34:52;;;;;;;2.45;2.05;;;34.80;99.90;;;;;;5078501;28;20228;-67
2021/07/18 09:37:23;;;;;;;1.92;1.73;;;34.80;99.90;;;;;;5082761;28;20212;-67
2021/07/18 09:39:59;;;;;;;1.67;1.52;;;34.70;99.80;;;;;;5083224;28;20180;-67
2021/07/18 09:42:30;;;;;;;2.08;1.70;;;34.90;99.50;;;;;;5077889;28;20363;-67
2021/07/18 09:45:04;;;;;;;1.90;1.70;;;35.10;99.90;;;;;;5079487;28;20183;-67
2021/07/18 09:47:32;;;;;;;1.70;1.60;;;35.30;99.00;;;;;;5081912;28;20200;-67
2021/07/18 09:50:00;;;;;;;1.95;1.60;;;35.20;98.60;;;;;;5079268;28;20191;-67
2021/07/18 09:52:30;;;;;;;1.70;1.60;;;35.10;99.50;;;;;;5073964;28;20191;-67
2021/07/18 09:54:59;;;;;;;4.05;1.50;;;35.40;98.90;;;;;;5074179;28;20180;-67
2021/07/18 09:57:32;;;;;;;1.58;1.45;;;35.30;97.90;;;;;;5078956;28;20212;-67
2021/07/18 10:00:05;;;;;;;2.00;1.60;;;35.30;99.20;;;;;;5080288;28;20184;-67
2021/07/18 10:02:33;;;;;;;1.85;1.75;;;35.40;98.50;;;;;;5076657;28;20195;-67
2021/07/18 10:05:03;;;;;;;1.92;1.35;;;35.30;98.40;;;;;;5075447;28;20223;-67
2021/07/18 10:07:33;;;;;;;1.95;1.40;;;35.50;98.60;;;;;;5079107;28;20185;-67
2021/07/18 10:10:04;;;;;;;6.03;1.50;;;35.80;98.40;;;;;;5074324;28;20251;-68
2021/07/18 10:12:34;;;;;;;1.45;1.45;;;35.90;98.20;;;;;;5078274;28;20180;-67
2021/07/18 10:15:05;;;;;;;2.88;1.60;;;35.80;97.70;;;;;;5078582;28;20190;-68
2021/07/18 10:17:33;;;;;;;3.45;1.70;;;35.80;98.10;;;;;;5069038;28;20220;-68
2021/07/18 10:20:01;;;;;;;3.03;1.23;;;35.90;98.50;;;;;;5079510;28;20186;-67
2021/07/18 10:22:31;;;;;;;1.52;1.52;;;35.90;99.10;;;;;;5079497;28;20194;-68
2021/07/18 10:24:59;;;;;;;2.65;1.60;;;36.10;97.80;;;;;;5081292;28;20219;-67
2021/07/18 10:27:28;;;;;;;2.03;1.90;;;36.10;97.80;;;;;;5079378;28;20180;-68
2021/07/18 10:29:57;;;;;;;1.90;1.80;;;36.10;98.50;;;;;;5066752;28;20218;-68
2021/07/18 10:32:27;;;;;;;4.05;1.63;;;35.80;98.00;;;;;;5072884;28;20185;-68
2021/07/18 10:34:56;;;;;;;4.22;1.60;;;35.70;98.00;;;;;;5080775;28;20234;-68
2021/07/18 10:37:38;;;;;;;3.25;1.88;;;35.90;98.50;;;;;;5078315;28;20237;-67
2021/07/18 10:40:12;;;;;;;3.80;1.70;;;35.80;98.10;;;;;;5097971;28;20176;-67
2021/07/18 10:42:41;;;;;;;2.15;2.05;;;35.50;97.40;;;;;;5076196;28;20312;-68
2021/07/18 10:45:22;;;;;;;1.90;1.80;;;35.60;98.20;;;;;;5081808;28;20323;-68
2021/07/18 10:48:01;;;;;;;2.38;1.83;;;35.50;98.10;;;;;;5081645;28;20172;-69
2021/07/18 10:50:58;;;;;;;2.45;1.80;;;35.20;98.20;;;;;;5082266;28;20448;-68
2021/07/18 10:53:32;;;;;;;1.98;1.88;;;35.20;98.70;;;;;;5075561;28;20195;-68
2021/07/18 10:56:01;;;;;;;3.28;2.35;;;35.00;99.10;;;;;;5080027;28;20226;-68
2021/07/18 10:58:51;;;;;;;3.58;2.05;;;34.60;97.90;;;;;;5078988;28;20418;-70
2021/07/18 11:01:43;;;;;;;1.90;1.80;;;34.40;98.70;;;;;;5068049;28;20401;-67
2021/07/18 11:04:44;;;;;;;3.40;2.10;;;34.30;98.90;;;;;;5063257;28;20199;-67
2021/07/18 11:07:36;;;;;;;3.10;2.13;;;34.30;97.70;;;;;;5080134;28;20203;-66
2021/07/18 11:10:18;;;;;;;3.05;2.03;;;33.60;99.00;;;;;;5074480;28;20453;-68
2021/07/18 11:13:00;;;;;;;2.72;2.00;;;33.40;99.90;;;;;;5080926;28;20184;-69
2021/07/18 11:15:39;;;;;;;3.72;2.40;;;33.60;99.90;;;;;;5079861;28;20195;-68
2021/07/18 11:18:13;;;;;;;2.30;2.13;;;33.70;99.90;;;;;;5081013;28;20275;-68
2021/07/18 11:21:07;;;;;;;2.80;2.42;;;33.70;99.90;;;;;;5078243;28;20183;-68
2021/07/18 11:23:39;;;;;;;1.95;1.85;;;33.60;99.90;;;;;;5076643;28;20235;-68
2021/07/18 11:26:15;;;;;;;3.70;2.38;;;33.70;99.90;;;;;;5080983;28;20487;-68
2021/07/18 11:28:52;;;;;;;2.65;2.30;;;33.50;99.30;;;;;;5076575;28;20284;-68
2021/07/18 11:31:36;;;;;;;2.35;2.17;;;33.40;99.70;;;;;;5071681;28;20191;-68
2021/07/18 11:34:09;;;;;;;2.72;2.53;;;33.20;99.90;;;;;;5075497;28;20249;-68
2021/07/18 11:37:02;;;;;;;3.72;2.90;;;33.00;99.90;;;;;;5078678;28;20189;-68
2021/07/18 11:39:33;;;;;;;2.50;2.30;;;33.10;99.90;;;;;;5077387;28;20468;-68
2021/07/18 11:42:07;;;;;;;3.00;2.45;;;32.80;99.90;;;;;;5077892;28;20187;-68
2021/07/18 11:44:39;;;;;;;2.50;2.30;;;32.70;99.90;;;;;;5077205;28;20427;-68
2021/07/18 11:47:13;;;;;;;4.50;2.60;;;32.70;99.90;;;;;;5076782;28;20190;-68
2021/07/18 11:49:44;;;;;;;2.50;2.40;;;32.50;99.90;;;;;;5077148;28;20423;-72
2021/07/18 11:52:15;;;;;;;2.95;2.50;;;32.50;99.90;;;;;;5079404;28;20196;-71
2021/07/18 11:54:44;;;;;;;2.72;2.53;;;32.30;99.90;;;;;;5079974;28;20442;-71
2021/07/18 11:57:17;;;;;;;3.35;3.03;;;31.80;99.90;;;;;;5076846;28;20180;-68
2021/07/18 11:59:48;;;;;;;3.58;3.20;;;31.60;99.90;;;;;;5071564;28;20216;-68
2021/07/18 12:02:17;;;;;;;7.53;2.85;;;31.60;99.90;;;;;;5077594;28;20234;-69
2021/07/18 12:04:46;;;;;;;4.07;2.90;;;31.70;99.90;;;;;;5075061;28;20376;-70
2021/07/18 12:07:17;;;;;;;4.95;3.05;;;31.80;99.90;;;;;;5078291;28;20184;-68
2021/07/18 12:09:47;;;;;;;6.07;3.33;;;31.80;99.90;;;;;;5082191;28;20524;-68
2021/07/18 12:12:17;;;;;;;11.65;3.75;;;31.90;99.90;;;;;;5081568;28;20176;-68
2021/07/18 12:14:46;;;;;;;9.32;3.97;;;31.80;99.90;;;;;;5077900;28;20195;-67
2021/07/18 12:17:15;;;;;;;4.28;3.90;;;31.60;99.90;;;;;;5077048;28;20282;-68
2021/07/18 12:19:44;;;;;;;7.72;3.47;;;31.70;99.90;;;;;;5077382;28;20207;-69
2021/07/18 12:22:15;;;;;;;4.90;3.22;;;31.70;99.90;;;;;;5075327;28;20229;-68
2021/07/18 12:24:48;;;;;;;4.05;3.47;;;31.70;99.90;;;;;;5077366;28;20185;-68
2021/07/18 12:27:18;;;;;;;5.90;3.72;;;31.30;99.90;;;;;;5077782;28;20215;-71
2021/07/18 12:29:51;;;;;;;3.88;2.75;;;31.10;99.90;;;;;;5077676;28;20215;-72
2021/07/18 12:32:21;;;;;;;8.55;4.03;;;31.00;99.90;;;;;;5075199;28;20177;-69
2021/07/18 12:34:51;;;;;;;7.53;4.50;;;31.00;99.90;;;;;;5071810;28;20217;-73
2021/07/18 12:37:21;;;;;;;9.57;3.92;;;30.90;99.90;;;;;;5078364;28;20445;-71
2021/07/18 12:39:51;;;;;;;5.70;3.40;;;30.70;99.90;;;;;;5077130;28;20230;-71
2021/07/18 12:42:26;;;;;;;3.22;3.03;;;30.40;99.90;;;;;;5073709;28;20190;-71
2021/07/18 12:44:56;;;;;;;3.22;3.13;;;30.10;99.90;;;;;;5070662;28;20198;-71
2021/07/18 12:47:35;;;;;;;3.53;3.30;;;30.10;99.90;;;;;;5072127;28;20448;-71
2021/07/18 12:50:19;;;;;;;4.10;3.40;;;30.20;99.90;;;;;;5073865;28;20179;-72
2021/07/18 12:52:58;;;;;;;4.32;3.75;;;30.20;99.90;;;;;;5073690;28;20195;-73
2021/07/18 12:55:29;;;;;;;3.83;3.47;;;30.10;99.90;;;;;;5079086;28;20185;-73
2021/07/18 12:57:59;;;;;;;3.72;3.42;;;30.00;99.90;;;;;;5067106;28;20191;-73